createdAt,value
2023-04-01T00:00:15.499Z,22.7
2023-04-01T00:04:34.758Z,26.9
2023-04-01T00:10:04.327Z,15.6
2023-04-01T00:12:27.481Z,15.1
2023-04-01T00:14:36.282Z,24.3
2023-04-01T00:17:34.535Z,28.5
2023-04-01T00:20:18.160Z,24.5
2023-04-01T00:22:47.769Z,18.7
2023-04-01T00:27:03.261Z,21.2
2023-04-01T00:29:53.492Z,18.5
2023-04-01T00:34:50.483Z,19.4
2023-04-01T00:36:57.480Z,15.3
2023-04-01T00:39:53.980Z,15.8
2023-04-01T00:42:35.976Z,23.4
2023-04-01T00:50:19.693Z,16.4
2023-04-01T00:53:08.183Z,13.8
2023-04-01T00:55:41.973Z,18.2
2023-04-01T00:58:01.548Z,23.8
2023-04-01T01:00:06.406Z,20
2023-04-01T01:03:01.195Z,15.7
2023-04-01T01:05:22.017Z,15.8
2023-04-01T01:07:28.279Z,20.1
2023-04-01T01:10:23.927Z,16.4
2023-04-01T01:17:44.820Z,20.3
2023-04-01T01:20:46.682Z,21.7
2023-04-01T01:23:34.558Z,31.7
2023-04-01T01:26:07.738Z,18.8
2023-04-01T01:28:26.439Z,18
2023-04-01T01:30:30.962Z,22.5
2023-04-01T01:33:24.932Z,19.2
2023-04-01T01:36:04.734Z,17.5
2023-04-01T01:38:29.970Z,13.5
2023-04-01T01:40:40.447Z,10.9
2023-04-01T01:43:40.798Z,20.1
2023-04-01T01:46:26.505Z,17.7
2023-04-01T01:48:58.066Z,16.6
2023-04-01T01:51:14.962Z,19.7
2023-04-01T01:53:17.479Z,16.3
2023-04-01T01:56:09.847Z,21.5
2023-04-01T01:58:47.504Z,16.3
2023-04-01T02:01:10.817Z,18.7
2023-04-01T02:03:19.745Z,20.6
2023-04-01T02:06:18.297Z,24.5
2023-04-01T02:09:02.220Z,19.6
2023-04-01T02:11:32.010Z,18.6
2023-04-01T02:13:47.362Z,17.5
2023-04-01T02:15:47.961Z,21.6
2023-04-01T02:18:38.239Z,20.7
2023-04-01T02:21:14.262Z,17.4
2023-04-01T02:23:35.788Z,14.9
2023-04-01T02:25:42.778Z,24.6
2023-04-01T02:31:21.809Z,21.5
2023-04-01T02:36:03.034Z,19.6
2023-04-01T02:39:05.938Z,20.9
2023-04-01T02:41:54.780Z,18.1
2023-04-01T02:44:28.855Z,22.1
2023-04-01T02:46:48.568Z,22.7
2023-04-01T02:48:53.763Z,20.2
2023-04-01T02:51:48.478Z,24.5
2023-04-01T02:56:55.015Z,12.5
2023-04-01T02:59:06.448Z,15.8
2023-04-01T03:02:07.861Z,20.6
2023-04-01T03:04:54.597Z,25.8
2023-04-01T03:07:26.820Z,13.8
2023-04-01T03:09:44.978Z,16.2
2023-04-01T03:11:48.210Z,19.7
2023-04-01T03:14:41.322Z,20.3
2023-04-01T03:19:44.320Z,15.4
2023-04-01T03:24:53.329Z,15
2023-04-01T03:30:08.805Z,18.6
2023-04-01T03:32:24.772Z,35
2023-04-01T03:34:26.540Z,29.1
2023-04-01T03:37:17.866Z,12.7
2023-04-01T03:39:54.634Z,13.8
2023-04-01T03:44:25.101Z,17.3
2023-04-01T03:50:05.819Z,12.1
2023-04-01T03:52:34.251Z,14
2023-04-01T03:54:48.701Z,15.1
2023-04-01T03:57:52.273Z,24.1
2023-04-01T04:03:16.924Z,16.3
2023-04-01T04:07:43.628Z,16.2
2023-04-01T04:10:39.269Z,12.2
2023-04-01T04:13:20.515Z,18.4
2023-04-01T04:18:00.383Z,26.1
2023-04-01T04:21:02.038Z,12.6
2023-04-01T04:23:49.555Z,13.6
2023-04-01T04:26:46.862Z,9.7
2023-04-01T04:28:41.573Z,9.8
2023-04-01T04:30:45.735Z,11.5
2023-04-01T04:33:39.883Z,19.8
2023-04-01T04:36:19.443Z,18.6
2023-04-01T04:38:44.293Z,13.4
2023-04-01T04:43:55.408Z,17.5
2023-04-01T04:48:46.479Z,22
2023-04-01T04:53:32.208Z,16.3
2023-04-01T04:56:24.212Z,13.2
2023-04-01T04:59:01.944Z,12.3
2023-04-01T05:01:25.298Z,20.6
2023-04-01T05:06:32.367Z,17.6
2023-04-01T05:09:16.328Z,16.8
2023-04-01T05:11:45.849Z,20.6
2023-04-01T05:14:01.098Z,17.2
2023-04-01T05:16:01.862Z,17.8
2023-04-01T05:18:52.382Z,25
2023-04-01T05:21:28.105Z,24.2
2023-04-01T05:23:49.615Z,22.3
2023-04-01T05:25:56.695Z,19.2
2023-04-01T05:28:53.131Z,21.8
2023-04-01T05:31:35.376Z,15.9
2023-04-01T05:34:03.125Z,16.4
2023-04-01T05:36:16.429Z,22
2023-04-01T05:39:19.340Z,14.2
2023-04-01T05:42:07.794Z,15.5
2023-04-01T05:44:41.738Z,16
2023-04-01T05:49:06.839Z,14.9
2023-04-01T05:52:01.661Z,14.1
2023-04-01T05:54:41.829Z,21.5
2023-04-01T05:57:07.941Z,23.2
2023-04-01T05:59:19.338Z,19
2023-04-01T06:02:20.582Z,17.4
2023-04-01T06:05:07.069Z,16.5
2023-04-01T06:07:39.340Z,17
2023-04-01T06:12:00.635Z,14.6
2023-04-01T06:17:32.143Z,14.1
2023-04-01T06:19:56.387Z,14
2023-04-01T06:22:06.116Z,13.6
2023-04-01T06:25:05.342Z,11.4
2023-04-01T06:27:50.127Z,13.7
2023-04-01T06:30:20.616Z,19.3
2023-04-01T06:32:36.773Z,21.3
2023-04-01T06:34:38.129Z,13.8
2023-04-01T06:37:29.610Z,17.5
2023-04-01T06:40:06.054Z,13.1
2023-04-01T06:42:28.618Z,14.3
2023-04-01T06:44:36.293Z,19.7
2023-04-01T06:47:33.969Z,20.3
2023-04-01T06:50:16.944Z,24.3
2023-04-01T06:52:45.569Z,20.2
2023-04-01T06:55:00.020Z,19.4
2023-04-01T06:58:03.583Z,16.6
2023-04-01T07:00:53.215Z,16.9
2023-04-01T07:03:28.034Z,20.1
2023-04-01T07:05:48.323Z,18.9
2023-04-01T07:07:54.301Z,18.8
2023-04-01T07:10:50.114Z,14.2
2023-04-01T07:13:31.549Z,15.5
2023-04-01T07:15:58.089Z,17.1
2023-04-01T07:18:10.593Z,13.8
2023-04-01T07:21:12.617Z,24.3
2023-04-01T07:26:33.383Z,13.5
2023-04-01T07:28:52.067Z,12.6
2023-04-01T07:30:56.644Z,18
2023-04-01T07:33:50.230Z,22.5
2023-04-01T07:38:54.681Z,15.8
2023-04-01T07:46:51.089Z,16.2
2023-04-01T07:49:22.387Z,23.4
2023-04-01T07:51:39.598Z,18.5
2023-04-01T07:56:33.852Z,20.3
2023-04-01T07:59:11.653Z,23.3
2023-04-01T08:01:34.923Z,18.9
2023-04-01T08:03:44.035Z,17.4
2023-04-01T08:06:41.877Z,22.7
2023-04-01T08:09:25.916Z,30.5
2023-04-01T08:11:55.414Z,20.5
2023-04-01T08:14:10.379Z,18.6
2023-04-01T08:16:11.490Z,19.7
2023-04-01T08:21:37.112Z,23
2023-04-01T08:26:05.779Z,21.5
2023-04-01T08:29:02.151Z,19.9
2023-04-01T08:31:44.307Z,16.9
2023-04-01T08:34:11.852Z,15.1
2023-04-01T08:36:25.163Z,20.9
2023-04-01T08:42:16.403Z,21
2023-04-01T08:44:50.481Z,19.5
2023-04-01T08:47:09.878Z,17.1
2023-04-01T08:49:15.143Z,14.8
2023-04-01T08:52:09.954Z,19.6
2023-04-01T08:54:50.271Z,23.3
2023-04-01T08:57:16.238Z,22.6
2023-04-01T08:59:27.669Z,18.4
2023-04-01T09:05:15.204Z,10.4
2023-04-01T09:07:47.583Z,18.2
2023-04-01T09:12:08.517Z,12.5
2023-04-01T09:15:01.327Z,10.9
2023-04-01T09:16:40.510Z,10
2023-04-01T09:17:39.968Z,11.7
2023-04-01T09:22:13.606Z,8.6
2023-04-01T09:25:12.970Z,8.9
2023-04-01T09:27:57.642Z,9.9
2023-04-01T09:30:28.132Z,12
2023-04-01T09:34:45.684Z,10.7
2023-04-01T09:37:36.681Z,11.4
2023-04-01T09:40:13.591Z,10.4
2023-04-01T09:42:35.703Z,11.2
2023-04-01T09:50:23.977Z,9.3
2023-04-01T09:52:52.414Z,14.2
2023-04-01T09:58:10.520Z,9.7
2023-04-01T10:00:59.807Z,9.5
2023-04-01T10:08:01.662Z,10.7
2023-04-01T10:10:56.772Z,12.6
2023-04-01T10:13:38.098Z,15.1
2023-04-01T10:16:04.760Z,13.9
2023-04-01T10:18:16.950Z,12.7
2023-04-01T10:21:18.965Z,18.8
2023-04-01T10:24:06.572Z,16.3
2023-04-01T10:26:39.457Z,12.1
2023-04-01T10:28:58.168Z,15.8
2023-04-01T10:31:02.358Z,13
2023-04-01T10:32:44.970Z,21.5
2023-04-01T10:33:56.180Z,26.4
2023-04-01T10:36:35.748Z,15.3
2023-04-01T10:39:00.813Z,14.1
2023-04-01T10:44:11.234Z,10.1
2023-04-01T10:46:57.047Z,11.9
2023-04-01T10:53:47.512Z,11.8
2023-04-01T10:56:39.460Z,10.8
2023-04-01T10:59:17.052Z,21.5
2023-04-01T11:03:48.973Z,13.9
2023-04-01T11:06:47.155Z,14.4
2023-04-01T11:09:30.908Z,18
2023-04-01T11:14:15.480Z,12.6
2023-04-01T11:19:06.505Z,11.8
2023-04-01T11:21:41.925Z,10.8
2023-04-01T11:24:05.331Z,15.3
2023-04-01T11:26:10.206Z,16.1
2023-04-01T11:29:06.685Z,16.3
2023-04-01T11:31:48.715Z,15.3
2023-04-01T11:34:16.472Z,15.8
2023-04-01T11:36:29.697Z,12.9
2023-04-01T11:39:32.382Z,23.2
2023-04-01T11:42:20.700Z,23
2023-04-01T11:44:06.293Z,26.1
2023-04-01T11:44:54.595Z,30.1
2023-04-01T11:47:14.257Z,26.3
2023-04-01T11:49:19.258Z,21.4
2023-04-01T11:52:13.993Z,14.2
2023-04-01T11:54:34.893Z,22
2023-04-01T11:56:41.018Z,20.1
2023-04-01T11:59:36.796Z,12.8
2023-04-01T12:02:20.000Z,13.5
2023-04-01T12:09:59.459Z,12.3
2023-04-01T12:12:54.440Z,14.5
2023-04-01T12:15:20.459Z,15.1
2023-04-01T12:17:39.195Z,16.7
2023-04-01T12:22:37.785Z,11.3
2023-04-01T12:29:53.253Z,12.3
2023-04-01T12:31:41.608Z,9.3
2023-04-01T12:32:53.642Z,11.8
2023-04-01T12:35:39.395Z,18.8
2023-04-01T12:36:42.377Z,21
2023-04-01T12:38:10.671Z,22.7
2023-04-01T12:42:30.308Z,21.5
2023-04-01T12:45:22.511Z,13
2023-04-01T12:48:00.323Z,13.4
2023-04-01T12:50:23.514Z,16.1
2023-04-01T12:55:31.352Z,22.3
2023-04-01T13:00:45.382Z,21.7
2023-04-01T13:03:00.229Z,16.9
2023-04-01T13:07:51.036Z,15.3
2023-04-01T13:10:27.112Z,12.2
2023-04-01T13:12:48.620Z,20.4
2023-04-01T13:14:55.500Z,17.1
2023-04-01T13:20:34.819Z,15.1
2023-04-01T13:25:15.831Z,18.3
2023-04-01T13:28:18.797Z,18.1
2023-04-01T13:31:07.223Z,12
2023-04-01T13:33:41.459Z,13.6
2023-04-01T13:38:06.403Z,13
2023-04-01T13:41:03.816Z,12.3
2023-04-01T13:43:41.802Z,13.6
2023-04-01T13:46:07.751Z,14
2023-04-01T13:56:39.554Z,12.3
2023-04-01T13:58:57.437Z,11.5
2023-04-01T14:01:01.376Z,10.7
2023-04-01T14:06:32.687Z,12.7
2023-04-01T14:08:57.060Z,24.6
2023-04-01T14:14:05.982Z,11.8
2023-04-01T14:19:21.432Z,11.5
2023-04-01T14:21:37.671Z,10.2
2023-04-01T14:23:15.126Z,9.3
2023-04-01T14:26:30.532Z,7.8
2023-04-01T14:31:29.776Z,14.7
2023-04-01T14:36:35.192Z,8.6
2023-04-01T14:39:18.344Z,12
2023-04-01T14:41:47.118Z,13.8
2023-04-01T14:45:45.042Z,26.6
2023-04-01T14:46:05.361Z,37.7
2023-04-01T14:49:54.701Z,25.4
2023-04-01T14:52:29.720Z,23
2023-04-01T14:54:50.077Z,16.8
2023-04-01T14:56:56.358Z,12.3
2023-04-01T14:59:52.040Z,12
2023-04-01T15:02:33.445Z,5.4
2023-04-01T15:05:00.261Z,6.8
2023-04-01T15:07:12.980Z,6.4
2023-04-01T15:10:14.751Z,5.1
2023-04-01T15:13:02.361Z,4.8
2023-04-01T15:15:35.766Z,8.5
2023-04-01T15:19:58.714Z,5.4
2023-04-01T15:22:52.536Z,11.7
2023-04-01T15:23:55.396Z,21.5
2023-04-01T15:27:57.208Z,14.3
2023-04-01T15:30:07.859Z,12.3
2023-04-01T15:31:46.775Z,9.1
2023-04-01T15:33:07.963Z,7.4
2023-04-01T15:35:53.942Z,9.1
2023-04-01T15:40:42.339Z,6.2
2023-04-01T15:42:44.856Z,6.5
2023-04-01T15:48:14.786Z,5.9
2023-04-01T15:50:37.840Z,0
2023-04-01T15:55:45.040Z,7.7
2023-04-01T15:58:29.106Z,10.2
2023-04-01T16:05:14.844Z,18.4
2023-04-01T16:10:40.894Z,9.3
2023-04-01T16:15:09.424Z,8
2023-04-01T16:18:05.955Z,9.3
2023-04-01T16:23:15.835Z,12.4
2023-04-01T16:28:32.422Z,8.2
2023-04-01T16:31:20.611Z,9.1
2023-04-01T16:36:14.270Z,7
2023-04-01T16:38:19.660Z,5.3
2023-04-01T16:41:14.307Z,6
2023-04-01T16:43:54.873Z,6.1
2023-04-01T16:46:20.745Z,8.5
2023-04-01T16:48:32.191Z,12.3
2023-04-01T16:54:19.837Z,11.3
2023-04-01T16:56:52.374Z,12
2023-04-01T16:59:09.889Z,14.4
2023-04-01T17:04:06.400Z,18.2
2023-04-01T17:06:44.892Z,13.7
2023-04-01T17:09:09.246Z,9.9
2023-04-01T17:14:18.030Z,10.4
2023-04-01T17:17:02.884Z,11.4
2023-04-01T17:21:49.400Z,9
2023-04-01T17:23:50.813Z,8.8
2023-04-01T17:26:42.279Z,11.6
2023-04-01T17:29:18.800Z,10.3
2023-04-01T17:31:41.064Z,8.8
2023-04-01T17:36:46.579Z,9.3
2023-04-01T17:41:58.252Z,10
2023-04-01T17:47:16.375Z,8
2023-04-01T17:50:05.632Z,8.8
2023-04-01T17:55:01.127Z,9.8
2023-04-01T18:00:02.904Z,9.5
2023-04-01T18:02:44.246Z,11.3
2023-04-01T18:07:23.284Z,10.2
2023-04-01T18:10:25.391Z,8.3
2023-04-01T18:13:12.920Z,12.5
2023-04-01T18:18:05.062Z,8.3
2023-04-01T18:23:02.918Z,9.3
2023-04-01T18:25:42.236Z,8.5
2023-04-01T18:28:07.421Z,7.4
2023-04-01T18:30:17.777Z,5.3
2023-04-01T18:33:18.079Z,7.3
2023-04-01T18:36:03.880Z,5.5
2023-04-01T18:38:35.009Z,0
2023-04-01T19:03:23.131Z,6.9
2023-04-01T19:08:14.055Z,0
2023-04-01T19:15:18.288Z,4.5
2023-04-01T19:18:14.914Z,4.8
2023-04-01T19:20:56.950Z,4.9
2023-04-01T19:25:37.710Z,5.3
2023-04-01T19:28:40.556Z,7.6
2023-04-01T19:31:29.112Z,6.8
2023-04-01T19:34:03.085Z,6
2023-04-01T19:36:22.805Z,7.8
2023-04-01T19:41:22.623Z,6.2
2023-04-01T19:48:40.326Z,7.5
2023-04-01T19:54:27.945Z,0
2023-04-01T19:57:00.192Z,4.7
2023-04-01T19:59:17.777Z,4.4
2023-04-01T20:01:21.069Z,5.5
2023-04-01T20:04:14.060Z,4
2023-04-01T20:06:52.550Z,0
2023-04-01T20:26:49.569Z,4.2
2023-04-01T20:29:26.146Z,0
2023-04-01T20:31:48.435Z,6.5
2023-04-01T20:36:53.654Z,4.6
2023-04-01T20:39:36.631Z,0
2023-04-01T22:15:22.888Z,5.3
2023-04-01T22:18:19.291Z,0
2023-04-01T22:21:01.488Z,4.8
2023-04-01T22:25:42.398Z,4.9
2023-04-01T22:28:45.118Z,0
2023-04-01T22:38:31.856Z,4
2023-04-01T22:41:26.669Z,0
2023-04-01T22:51:30.747Z,7.1
2023-04-01T22:53:57.586Z,0
2023-04-01T22:56:10.204Z,8.3
2023-04-01T22:59:12.214Z,6.6
2023-04-01T23:02:00.038Z,5.6
2023-04-01T23:04:33.196Z,0
2023-04-01T23:16:55.240Z,8
2023-04-01T23:22:06.260Z,8.7
2023-04-01T23:24:51.898Z,0
2023-04-01T23:29:40.800Z,5.2
2023-04-01T23:37:12.987Z,6.3
2023-04-01T23:39:36.162Z,5.6
2023-04-01T23:41:45.099Z,9.8
2023-04-01T23:44:43.779Z,13.2
2023-04-01T23:47:27.648Z,10.8
2023-04-01T23:49:57.433Z,4.8
2023-04-01T23:54:13.460Z,10.4
2023-04-01T23:59:39.640Z,7.2
